Aérodrome :
LOGIN :

S'inscrire | Disclaimer

   EN    FR    IT 

 










Légende :    VFR   VFR Marginal   IFR   IFR Intensif   IFR Très Intensif
Visi : 
Plafond : 
>= 8 km
>= 3000ft
5 à 8 km
1000 à 3000 ft
1500m à 5 km
500 à 1000 ft
800 à 1500m
200 à 500 ft
< 800m
< 200 ft
Symboles :   Orages  Brouillard  Fortes neiges  Fortes précipitations  Vent > 20 kt
SIGMETs :   Divers  Orages  Givrage  Turbulence  Onde Orograph.  Cendres Volcan.






- Altitude de l'aérodrome : 60 ft
- Code IATA : MJT


LGMT - Odysseas Elytis

DERNIER METAR :
  • 271750Z 24012KT 180V300 9999 -TSRA FEW018CB SCT020TCU 15/12 Q1008

METARs EXPIRÉS :
  • 271720Z 19016G30KT 130V240 9999 -TSRA FEW018CB SCT020TCU 16/13 Q1007
  • 271650Z 21021G35KT 130V240 9999 TS FEW018CB SCT020TCU 16/12 Q1007
  • 271620Z 20021G36KT 130V240 9999 SCT020TCU 17/12 Q1007
  • 271550Z 20021G39KT 130V240 9999 SCT020TCU 17/12 Q1007
  • 271520Z 21022G36KT 130V240 9999 SCT020TCU 17/12 Q1007

TAF TAF LGMT
Valide du 27 à 18h jusqu'au 28 à 03h UTC


271700Z 2718/2803 20020G30KT 9999 SCT025
PROB40
TEMPO 2718/2719 5000 RA SCT020 BKN030
PROB30
TEMPO 2718/2719 4000 TSRA SCT016 FEW018CB BKN025
BECMG 2719/2720 27012KT



MET'MAP, la Météo Aéronautique d'un coup d'oeil ! - Copyright ORBIFLY Décembre 2007 - Disclaimer

ORBIFLY MET'MAP TEAM :

Programmation & Développement : Alexandra Zaïnal
Sur une idée originale de : Baudouin d'Aumeries
Assistance à la programmation : Marc-Olivier Méhu
Soutien technique & logistique : Manuel Goepfert

Contact : metmap@orbifly.com




SOURCES & CREDITS :

   NOAA